Weather at Casa Grande Municipal Airport

Public forecast

Using degrees Fahrenheit for public forecast. Weather courtesy of forecast.io.

Current aviation weather report (METAR) for Casa Grande Municipal Airport

Retrieved 2021/11/27 13:56 UTC (37 minutes ago):

KCGZ 271356Z AUTO 07004KT 10SM CLR 07/M02 A3010 RMK AO2 SLP193 T00721017

Closest aviation forecast (TAF) to Casa Grande Municipal Airport

Closest forecast is Phoenix–Mesa Gateway Airport, 21.9 nm (40.6 km) NNE. Retrieved 2021/11/27 12:22 UTC (2 hours ago):

TAF KIWA 271120Z 2712/2812 12005KT P6SM SKC FM271500 VRB04KT P6SM SKC FM272000 26005KT P6SM SKC FM280300 12005KT P6SM SKC